createdAt,value
2023-12-02T00:00:15.483Z,8.05
2023-12-02T00:02:42.348Z,9.73
2023-12-02T00:05:09.473Z,7.65
2023-12-02T00:07:36.369Z,9.20
2023-12-02T00:10:03.206Z,9.60
2023-12-02T00:12:30.015Z,11.40
2023-12-02T00:14:56.763Z,11.65
2023-12-02T00:17:23.507Z,12.57
2023-12-02T00:19:50.250Z,12.55
2023-12-02T00:22:17.045Z,12.20
2023-12-02T00:24:43.938Z,12.68
2023-12-02T00:27:13.732Z,12.50
2023-12-02T00:29:40.477Z,12.95
2023-12-02T00:32:07.471Z,14.23
2023-12-02T00:34:34.226Z,14.77
2023-12-02T00:37:00.997Z,13.18
2023-12-02T00:39:28.833Z,12.50
2023-12-02T00:41:55.690Z,12.10
2023-12-02T00:44:22.710Z,13.38
2023-12-02T00:46:49.502Z,14.27
2023-12-02T00:49:16.422Z,14.00
2023-12-02T00:51:43.175Z,13.75
2023-12-02T00:54:10.140Z,13.38
2023-12-02T00:56:37.328Z,15.05
2023-12-02T00:59:04.153Z,15.50
2023-12-02T01:01:31.124Z,15.60
2023-12-02T01:03:57.940Z,17.27
2023-12-02T01:06:24.697Z,17.90
2023-12-02T01:08:51.496Z,18.73
2023-12-02T01:11:18.246Z,19.50
2023-12-02T01:13:44.962Z,21.05
2023-12-02T01:16:11.821Z,22.77
2023-12-02T01:18:38.594Z,22.95
2023-12-02T01:21:05.606Z,27.60
2023-12-02T01:23:32.380Z,25.70
2023-12-02T01:25:59.126Z,25.40
2023-12-02T01:28:26.003Z,25.25
2023-12-02T01:30:52.821Z,25.00
2023-12-02T01:33:19.707Z,26.40
2023-12-02T01:35:46.586Z,25.63
2023-12-02T01:38:13.364Z,25.23
2023-12-02T01:40:40.110Z,23.02
2023-12-02T01:43:06.874Z,25.23
2023-12-02T01:45:33.673Z,25.02
2023-12-02T01:48:00.980Z,22.45
2023-12-02T01:50:27.857Z,21.48
2023-12-02T01:52:54.671Z,20.70
2023-12-02T01:55:21.416Z,20.87
2023-12-02T01:57:48.708Z,23.85
2023-12-02T02:00:15.959Z,22.75
2023-12-02T02:02:42.741Z,22.08
2023-12-02T02:05:09.864Z,21.52
2023-12-02T02:07:36.669Z,21.85
2023-12-02T02:10:03.651Z,21.05
2023-12-02T02:12:30.530Z,21.97
2023-12-02T02:14:57.698Z,21.88
2023-12-02T02:17:24.569Z,20.77
2023-12-02T02:19:51.524Z,21.98
2023-12-02T02:22:18.306Z,25.70
2023-12-02T02:24:45.282Z,24.55
2023-12-02T02:27:12.078Z,25.60
2023-12-02T02:29:38.825Z,25.45
2023-12-02T02:32:06.120Z,26.83
2023-12-02T02:34:33.239Z,23.25
2023-12-02T02:36:59.986Z,21.73
2023-12-02T02:39:26.840Z,20.75
2023-12-02T02:41:53.660Z,22.17
2023-12-02T02:44:20.439Z,21.58
2023-12-02T02:46:47.173Z,20.83
2023-12-02T02:49:14.050Z,21.83
2023-12-02T02:51:40.897Z,23.20
2023-12-02T02:54:07.728Z,23.35
2023-12-02T02:56:34.659Z,24.00
2023-12-02T02:59:01.413Z,24.92
2023-12-02T03:01:28.375Z,25.60
2023-12-02T03:03:55.241Z,23.95
2023-12-02T03:06:22.947Z,22.02
2023-12-02T03:08:49.729Z,23.25
2023-12-02T03:11:16.477Z,23.10
2023-12-02T03:13:43.217Z,23.55
2023-12-02T03:16:10.615Z,27.40
2023-12-02T03:18:37.427Z,27.77
2023-12-02T03:21:04.247Z,31.60
2023-12-02T03:23:31.025Z,27.70
2023-12-02T03:25:57.806Z,29.90
2023-12-02T03:28:24.661Z,27.52
2023-12-02T03:30:51.591Z,30.45
2023-12-02T03:33:18.398Z,29.52
2023-12-02T03:35:45.193Z,29.67
2023-12-02T03:38:12.036Z,29.23
2023-12-02T03:40:39.111Z,30.65
2023-12-02T03:43:05.839Z,33.90
2023-12-02T03:45:32.589Z,35.08
2023-12-02T03:47:59.520Z,32.58
2023-12-02T03:50:26.349Z,37.20
2023-12-02T03:52:53.082Z,34.00
2023-12-02T03:55:19.920Z,37.28
2023-12-02T03:57:46.865Z,35.88
2023-12-02T04:00:16.570Z,34.80
2023-12-02T04:02:43.511Z,36.22
2023-12-02T04:05:12.360Z,36.08
2023-12-02T04:07:39.701Z,35.92
2023-12-02T04:10:07.759Z,35.83
2023-12-02T04:12:37.137Z,35.10
2023-12-02T04:15:04.690Z,35.42
2023-12-02T04:17:31.463Z,38.55
2023-12-02T04:19:58.488Z,36.20
2023-12-02T04:22:25.994Z,35.50
2023-12-02T04:24:52.803Z,36.95
2023-12-02T04:27:19.589Z,37.83
2023-12-02T04:29:46.376Z,38.17
2023-12-02T04:32:13.288Z,36.30
2023-12-02T04:34:40.247Z,37.22
2023-12-02T04:37:07.315Z,38.00
2023-12-02T04:39:34.937Z,35.60
2023-12-02T04:42:01.922Z,33.78
2023-12-02T04:44:28.688Z,35.03
2023-12-02T04:46:55.457Z,32.05
2023-12-02T04:49:22.279Z,33.75
2023-12-02T04:51:49.155Z,33.30
2023-12-02T04:54:16.165Z,36.03
2023-12-02T04:56:42.999Z,34.97
2023-12-02T04:59:09.715Z,34.33
2023-12-02T05:01:36.491Z,36.65
2023-12-02T05:04:03.307Z,35.42
2023-12-02T05:06:30.599Z,35.83
2023-12-02T05:08:57.426Z,35.67
2023-12-02T05:11:24.372Z,35.78
2023-12-02T05:13:54.186Z,34.63
2023-12-02T05:16:21.249Z,32.35
2023-12-02T05:18:51.909Z,34.28
2023-12-02T05:21:20.303Z,35.00
2023-12-02T05:23:47.166Z,32.73
2023-12-02T05:26:13.930Z,34.67
2023-12-02T05:28:40.931Z,33.97
2023-12-02T05:31:08.316Z,33.78
2023-12-02T05:33:35.140Z,33.45
2023-12-02T05:36:01.920Z,31.83
2023-12-02T05:38:28.706Z,34.75
2023-12-02T05:40:55.432Z,33.42
2023-12-02T05:43:22.226Z,36.10
2023-12-02T05:45:50.604Z,36.67
2023-12-02T05:48:17.888Z,34.67
2023-12-02T05:50:45.033Z,35.90
2023-12-02T05:53:11.875Z,35.88
2023-12-02T05:55:38.669Z,34.70
2023-12-02T05:58:05.487Z,38.10
2023-12-02T06:00:32.297Z,38.67
2023-12-02T06:02:59.136Z,38.40
2023-12-02T06:05:25.922Z,37.03
2023-12-02T06:07:52.691Z,36.53
2023-12-02T06:10:19.446Z,36.20
2023-12-02T06:12:47.116Z,38.72
2023-12-02T06:15:13.994Z,37.10
2023-12-02T06:17:41.135Z,37.63
2023-12-02T06:20:10.636Z,36.88
2023-12-02T06:22:37.546Z,36.53
2023-12-02T06:25:04.697Z,37.33
2023-12-02T06:27:31.465Z,37.20
2023-12-02T06:29:58.262Z,37.28
2023-12-02T06:32:25.044Z,36.45
2023-12-02T06:34:52.058Z,38.53
2023-12-02T06:37:18.794Z,38.67
2023-12-02T06:39:45.567Z,37.60
2023-12-02T06:42:12.352Z,37.10
2023-12-02T06:44:40.161Z,38.47
2023-12-02T06:47:07.709Z,38.40
2023-12-02T06:49:34.538Z,38.53
2023-12-02T06:52:01.280Z,36.22
2023-12-02T06:54:27.994Z,38.35
2023-12-02T06:56:54.741Z,38.97
2023-12-02T06:59:21.472Z,38.40
2023-12-02T07:01:49.027Z,36.97
2023-12-02T07:04:15.859Z,38.28
2023-12-02T07:06:42.747Z,40.03
2023-12-02T07:09:09.624Z,39.33
2023-12-02T07:11:36.486Z,39.63
2023-12-02T07:14:04.699Z,37.95
2023-12-02T07:16:31.543Z,38.95
2023-12-02T07:18:58.795Z,39.17
2023-12-02T07:21:25.842Z,39.63
2023-12-02T07:23:52.784Z,37.65
2023-12-02T07:26:19.603Z,40.13
2023-12-02T07:28:46.501Z,40.10
2023-12-02T07:31:14.960Z,41.42
2023-12-02T07:33:42.476Z,41.88
2023-12-02T07:36:10.261Z,41.55
2023-12-02T07:38:37.127Z,41.67
2023-12-02T07:41:03.939Z,43.03
2023-12-02T07:43:30.761Z,42.75
2023-12-02T07:45:57.572Z,42.28
2023-12-02T07:48:24.385Z,42.70
2023-12-02T07:50:51.210Z,44.50
2023-12-02T07:53:18.005Z,45.17
2023-12-02T07:55:47.196Z,43.88
2023-12-02T07:58:14.126Z,44.08
2023-12-02T08:00:40.866Z,45.60
2023-12-02T08:03:07.599Z,44.88
2023-12-02T08:08:04.657Z,43.97
2023-12-02T08:10:31.445Z,46.33
2023-12-02T08:12:58.200Z,44.00
2023-12-02T08:15:24.995Z,42.55
2023-12-02T08:17:51.716Z,42.58
2023-12-02T08:20:18.726Z,39.58
2023-12-02T08:22:45.505Z,42.67
2023-12-02T08:25:12.499Z,42.95
2023-12-02T08:27:39.229Z,43.40
2023-12-02T08:30:06.565Z,40.93
2023-12-02T08:32:33.308Z,40.27
2023-12-02T08:35:00.427Z,43.28
2023-12-02T08:37:27.719Z,39.65
2023-12-02T08:39:55.565Z,40.13
2023-12-02T08:42:22.313Z,40.03
2023-12-02T08:44:49.109Z,40.38
2023-12-02T08:47:15.852Z,40.17
2023-12-02T08:49:42.618Z,40.13
2023-12-02T08:52:09.405Z,43.75
2023-12-02T08:54:36.197Z,42.53
2023-12-02T08:57:02.915Z,42.05
2023-12-02T08:59:29.644Z,42.00
2023-12-02T09:01:56.413Z,46.17
2023-12-02T09:04:23.246Z,39.80
2023-12-02T09:06:49.960Z,41.33
2023-12-02T09:09:16.874Z,43.00
2023-12-02T09:11:43.673Z,45.83
2023-12-02T09:14:10.679Z,43.38
2023-12-02T09:16:37.537Z,45.03
2023-12-02T09:19:37.932Z,41.10
2023-12-02T09:22:06.477Z,40.97
2023-12-02T09:24:39.104Z,41.60
2023-12-02T09:27:08.129Z,41.92
2023-12-02T09:29:42.006Z,43.47
2023-12-02T09:32:10.159Z,42.70
2023-12-02T09:34:42.802Z,43.97
2023-12-02T09:37:50.587Z,42.95
2023-12-02T09:40:24.545Z,41.88
2023-12-02T09:43:13.126Z,43.72
2023-12-02T09:45:57.053Z,42.50
2023-12-02T09:48:25.528Z,42.05
2023-12-02T09:51:31.547Z,42.70
2023-12-02T09:54:21.503Z,42.75
2023-12-02T09:56:57.200Z,41.05
2023-12-02T09:59:44.216Z,40.45
2023-12-02T10:02:37.677Z,42.05
2023-12-02T10:05:11.507Z,40.25
2023-12-02T10:08:04.850Z,42.17
2023-12-02T10:11:04.618Z,38.72
2023-12-02T10:13:57.345Z,41.20
2023-12-02T10:16:25.197Z,39.92
2023-12-02T10:19:00.015Z,40.10
2023-12-02T10:21:39.387Z,40.63
2023-12-02T10:24:12.110Z,41.38
2023-12-02T10:26:48.257Z,39.58
2023-12-02T10:29:26.076Z,42.53
2023-12-02T10:32:26.671Z,42.10
2023-12-02T10:35:14.376Z,41.17
2023-12-02T10:37:42.626Z,42.63
2023-12-02T10:40:11.320Z,39.45
2023-12-02T10:42:55.680Z,41.55
2023-12-02T10:45:22.863Z,41.33
2023-12-02T10:47:52.728Z,40.13
2023-12-02T10:50:22.014Z,41.70
2023-12-02T10:53:01.475Z,41.10
2023-12-02T10:55:31.713Z,41.80
2023-12-02T10:57:59.696Z,38.08
2023-12-02T11:00:30.620Z,40.97
2023-12-02T11:03:07.556Z,39.28
2023-12-02T11:05:57.399Z,37.90
2023-12-02T11:08:37.730Z,38.47
2023-12-02T11:11:10.170Z,37.53
2023-12-02T11:13:37.645Z,40.30
2023-12-02T11:16:26.950Z,38.03
2023-12-02T11:19:02.769Z,37.63
2023-12-02T11:21:39.011Z,38.00
2023-12-02T11:24:05.734Z,38.45
2023-12-02T11:26:40.397Z,37.08
2023-12-02T11:29:39.160Z,37.72
2023-12-02T11:32:46.423Z,37.85
2023-12-02T11:35:22.766Z,39.17
2023-12-02T11:38:00.656Z,39.00
2023-12-02T11:40:46.173Z,36.40
2023-12-02T11:43:40.487Z,37.95
2023-12-02T11:46:16.038Z,37.67
2023-12-02T11:49:00.676Z,36.95
2023-12-02T11:51:40.148Z,38.67
2023-12-02T11:54:19.669Z,40.35
2023-12-02T11:57:06.729Z,38.97
2023-12-02T11:59:49.988Z,38.03
2023-12-02T12:02:34.284Z,37.65
2023-12-02T12:05:10.104Z,38.53
2023-12-02T12:08:13.155Z,37.53
2023-12-02T12:10:41.751Z,37.63
2023-12-02T12:13:12.004Z,39.10
2023-12-02T12:15:39.735Z,39.30
2023-12-02T12:18:06.559Z,38.78
2023-12-02T12:20:33.389Z,38.72
2023-12-02T12:23:01.314Z,39.90
2023-12-02T12:25:31.068Z,40.20
2023-12-02T12:28:03.963Z,39.13
2023-12-02T12:30:49.910Z,36.60
2023-12-02T12:33:21.335Z,37.90
2023-12-02T12:35:49.698Z,38.17
2023-12-02T12:38:16.920Z,38.03
2023-12-02T12:40:45.426Z,37.08
2023-12-02T12:43:13.637Z,37.63
2023-12-02T12:45:41.347Z,39.65
2023-12-02T12:48:09.083Z,35.97
2023-12-02T12:50:38.320Z,37.75
2023-12-02T12:53:11.636Z,38.22
2023-12-02T12:55:43.645Z,38.92
2023-12-02T12:58:16.049Z,39.13
2023-12-02T13:00:47.161Z,39.38
2023-12-02T13:03:33.601Z,40.50
2023-12-02T13:06:28.440Z,38.10
2023-12-02T13:09:06.538Z,38.85
2023-12-02T13:11:51.263Z,39.47
2023-12-02T13:14:24.421Z,39.90
2023-12-02T13:16:51.867Z,39.80
2023-12-02T13:19:19.156Z,44.20
2023-12-02T13:21:46.860Z,39.50
2023-12-02T13:24:17.978Z,40.17
2023-12-02T13:26:44.865Z,38.33
2023-12-02T13:29:12.414Z,40.53
2023-12-02T13:31:43.362Z,40.03
2023-12-02T13:34:44.325Z,40.17
2023-12-02T13:37:13.643Z,41.30
2023-12-02T13:39:44.815Z,42.17
2023-12-02T13:42:13.277Z,41.03
2023-12-02T13:44:48.823Z,40.08
2023-12-02T13:47:26.422Z,41.58
2023-12-02T13:49:59.388Z,40.60
2023-12-02T13:53:00.641Z,42.58
2023-12-02T13:55:50.975Z,43.72
2023-12-02T13:58:22.742Z,42.45
2023-12-02T14:00:52.390Z,43.55
2023-12-02T14:03:46.419Z,43.08
2023-12-02T14:06:20.555Z,40.05
2023-12-02T14:09:05.170Z,42.10
2023-12-02T14:11:47.589Z,43.45
2023-12-02T14:14:43.934Z,42.53
2023-12-02T14:17:44.263Z,41.17
2023-12-02T14:20:19.964Z,40.97
2023-12-02T14:23:14.126Z,39.30
2023-12-02T14:26:12.387Z,39.60
2023-12-02T14:28:58.409Z,38.47
2023-12-02T14:31:57.233Z,37.60
2023-12-02T14:34:58.982Z,38.25
2023-12-02T14:37:35.505Z,40.65
2023-12-02T14:40:24.652Z,38.73
2023-12-02T14:43:10.757Z,39.83
2023-12-02T14:45:39.666Z,37.95
2023-12-02T14:48:14.568Z,39.03
2023-12-02T14:50:44.876Z,38.35
2023-12-02T14:53:12.579Z,37.75
2023-12-02T14:55:39.595Z,36.47
2023-12-02T14:58:39.102Z,36.47
2023-12-02T15:01:08.441Z,37.92
2023-12-02T15:03:36.705Z,40.25
2023-12-02T15:06:06.258Z,37.08
2023-12-02T15:08:40.902Z,35.87
2023-12-02T15:11:11.152Z,36.80
2023-12-02T15:13:38.387Z,38.60
2023-12-02T15:16:08.747Z,36.90
2023-12-02T15:18:36.869Z,40.45
2023-12-02T15:21:07.220Z,39.22
2023-12-02T15:23:34.011Z,39.58
2023-12-02T15:26:01.936Z,39.55
2023-12-02T15:28:31.516Z,37.22
2023-12-02T15:31:18.857Z,38.25
2023-12-02T15:33:52.951Z,39.60
2023-12-02T15:36:21.410Z,39.75
2023-12-02T15:38:50.951Z,38.88
2023-12-02T15:41:18.687Z,38.58
2023-12-02T15:43:45.680Z,37.47
2023-12-02T15:46:12.404Z,37.07
2023-12-02T15:48:43.197Z,40.17
2023-12-02T15:51:16.605Z,39.17
2023-12-02T15:53:44.204Z,40.17
2023-12-02T15:56:12.784Z,38.67
2023-12-02T15:58:40.668Z,40.38
2023-12-02T16:01:13.272Z,40.90
2023-12-02T16:03:47.046Z,40.92
2023-12-02T16:06:14.963Z,42.03
2023-12-02T16:08:42.535Z,40.22
2023-12-02T16:11:11.516Z,38.53
2023-12-02T16:13:40.549Z,38.00
2023-12-02T16:16:08.736Z,37.15
2023-12-02T16:18:43.291Z,40.00
2023-12-02T16:21:14.573Z,39.65
2023-12-02T16:23:44.378Z,39.90
2023-12-02T16:26:15.525Z,41.20
2023-12-02T16:28:44.517Z,42.47
2023-12-02T16:31:11.896Z,42.03
2023-12-02T16:33:39.355Z,42.85
2023-12-02T16:36:06.957Z,44.65
2023-12-02T16:38:39.879Z,45.33
2023-12-02T16:41:06.927Z,44.97
2023-12-02T16:43:33.784Z,43.00
2023-12-02T16:46:05.651Z,47.05
2023-12-02T16:48:35.219Z,46.17
2023-12-02T16:51:03.133Z,47.15
2023-12-02T16:53:29.880Z,43.65
2023-12-02T16:56:06.155Z,44.87
2023-12-02T16:58:42.515Z,43.78
2023-12-02T17:01:20.394Z,48.22
2023-12-02T17:03:47.236Z,45.78
2023-12-02T17:06:18.561Z,46.10
2023-12-02T17:08:46.110Z,43.80
2023-12-02T17:11:14.510Z,46.90
2023-12-02T17:14:06.858Z,47.17
2023-12-02T17:16:34.170Z,46.93
2023-12-02T17:19:12.314Z,45.95
2023-12-02T17:21:54.686Z,44.08
2023-12-02T17:24:30.319Z,43.55
2023-12-02T17:26:58.134Z,42.72
2023-12-02T17:29:32.701Z,42.60
2023-12-02T17:32:00.176Z,42.53
2023-12-02T17:34:28.625Z,40.88
2023-12-02T17:36:59.769Z,42.67
2023-12-02T17:39:26.571Z,41.78
2023-12-02T17:41:54.370Z,42.63
2023-12-02T17:44:21.705Z,42.30
2023-12-02T17:46:50.427Z,42.50
2023-12-02T17:49:21.322Z,42.33
2023-12-02T17:51:48.136Z,39.80
2023-12-02T17:54:14.928Z,41.90
2023-12-02T17:56:41.865Z,42.90
2023-12-02T17:59:08.746Z,41.60
2023-12-02T18:01:35.960Z,41.33
2023-12-02T18:04:02.718Z,46.13
2023-12-02T18:06:29.681Z,43.58
2023-12-02T18:08:56.587Z,42.20
2023-12-02T18:11:23.430Z,43.67
2023-12-02T18:13:50.480Z,41.92
2023-12-02T18:16:17.464Z,44.55
2023-12-02T18:18:44.450Z,39.58
2023-12-02T18:21:11.618Z,40.95
2023-12-02T18:23:39.714Z,39.25
2023-12-02T18:26:08.040Z,40.40
2023-12-02T18:28:35.139Z,41.28
2023-12-02T18:31:01.878Z,44.00
2023-12-02T18:33:28.752Z,45.53
2023-12-02T18:35:55.548Z,42.23
2023-12-02T18:38:23.315Z,41.85
2023-12-02T18:40:50.194Z,39.50
2023-12-02T18:43:16.979Z,40.33
2023-12-02T18:45:43.767Z,40.30
2023-12-02T18:48:10.647Z,37.25
2023-12-02T18:50:37.469Z,41.77
2023-12-02T18:53:04.286Z,37.40
2023-12-02T18:55:31.499Z,37.30
2023-12-02T18:57:58.220Z,35.80
2023-12-02T19:00:25.052Z,34.90
2023-12-02T19:02:51.816Z,36.95
2023-12-02T19:05:18.587Z,37.53
2023-12-02T19:07:45.379Z,39.90
2023-12-02T19:10:12.207Z,36.28
2023-12-02T19:12:39.031Z,39.72
2023-12-02T19:15:06.611Z,39.30
2023-12-02T19:17:33.460Z,39.08
2023-12-02T19:20:00.455Z,38.33
2023-12-02T19:22:27.243Z,41.17
2023-12-02T19:24:54.115Z,39.83
2023-12-02T19:27:20.975Z,38.88
2023-12-02T19:29:47.876Z,37.63
2023-12-02T19:32:14.758Z,36.55
2023-12-02T19:34:42.217Z,37.85
2023-12-02T19:37:09.347Z,36.85
2023-12-02T19:39:40.036Z,37.50
2023-12-02T19:42:09.114Z,37.22
2023-12-02T19:44:36.105Z,45.40
2023-12-02T19:47:02.941Z,47.50
2023-12-02T19:49:29.903Z,50.70
2023-12-02T19:51:56.761Z,39.47
2023-12-02T19:54:24.141Z,37.75
2023-12-02T19:56:51.360Z,37.00
2023-12-02T19:59:19.220Z,40.28
2023-12-02T20:01:46.527Z,41.33
2023-12-02T20:04:13.683Z,38.65
2023-12-02T20:06:41.467Z,40.33
2023-12-02T20:09:08.221Z,42.30
2023-12-02T20:11:44.611Z,42.97
2023-12-02T20:14:14.198Z,41.92
2023-12-02T20:16:41.104Z,42.08
2023-12-02T20:19:08.036Z,45.30
2023-12-02T20:21:36.424Z,42.13
2023-12-02T20:24:05.219Z,39.80
2023-12-02T20:26:32.468Z,41.43
2023-12-02T20:28:59.521Z,41.83
2023-12-02T20:31:26.980Z,42.40
2023-12-02T20:33:53.843Z,40.72
2023-12-02T20:36:20.812Z,40.72
2023-12-02T20:38:47.762Z,41.13
2023-12-02T20:41:14.726Z,41.15
2023-12-02T20:43:41.551Z,39.60
2023-12-02T20:46:08.540Z,42.63
2023-12-02T20:48:36.884Z,39.65
2023-12-02T20:51:04.734Z,40.20
2023-12-02T20:53:31.605Z,39.15
2023-12-02T20:55:58.358Z,39.67
2023-12-02T20:58:25.273Z,39.05
2023-12-02T21:00:52.525Z,38.15
2023-12-02T21:03:19.502Z,38.00
2023-12-02T21:05:46.512Z,37.80
2023-12-02T21:08:13.814Z,38.28
2023-12-02T21:10:40.672Z,36.67
2023-12-02T21:13:11.065Z,34.83
2023-12-02T21:15:43.303Z,36.13
2023-12-02T21:18:12.572Z,39.90
2023-12-02T21:20:39.846Z,36.67
2023-12-02T21:23:07.132Z,37.65
2023-12-02T21:25:34.552Z,34.67
2023-12-02T21:28:01.751Z,36.97
2023-12-02T21:30:38.413Z,37.05
2023-12-02T21:33:07.004Z,37.25
2023-12-02T21:35:35.787Z,36.90
2023-12-02T21:38:05.676Z,36.20
2023-12-02T21:40:34.088Z,35.20
2023-12-02T21:43:04.083Z,37.88
2023-12-02T21:45:42.947Z,36.67
2023-12-02T21:48:33.336Z,38.58
2023-12-02T21:51:02.133Z,40.13
2023-12-02T21:53:35.142Z,36.63
2023-12-02T21:56:01.848Z,38.47
2023-12-02T21:58:36.157Z,40.38
2023-12-02T22:01:07.647Z,40.53
2023-12-02T22:03:38.895Z,38.10
2023-12-02T22:06:36.931Z,37.70
2023-12-02T22:09:04.872Z,37.55
2023-12-02T22:11:43.693Z,37.17
2023-12-02T22:14:19.594Z,33.33
2023-12-02T22:16:51.248Z,33.60
2023-12-02T22:19:18.535Z,33.92
2023-12-02T22:21:45.690Z,34.80
2023-12-02T22:24:13.116Z,34.40
2023-12-02T22:26:40.149Z,35.35
2023-12-02T22:29:11.110Z,33.78
2023-12-02T22:31:38.853Z,34.97
2023-12-02T22:34:13.740Z,35.03
2023-12-02T22:36:42.667Z,34.33
2023-12-02T22:39:16.444Z,34.88
2023-12-02T22:41:43.223Z,35.20
2023-12-02T22:44:10.256Z,34.63
2023-12-02T22:46:37.047Z,33.63
2023-12-02T22:49:05.417Z,31.77
2023-12-02T22:51:36.708Z,33.70
2023-12-02T22:54:04.417Z,32.83
2023-12-02T22:56:37.808Z,32.60
2023-12-02T22:59:07.415Z,33.10
2023-12-02T23:01:38.055Z,34.35
2023-12-02T23:04:11.813Z,36.03
2023-12-02T23:06:38.707Z,36.65
2023-12-02T23:09:08.347Z,37.20
2023-12-02T23:11:49.121Z,34.35
2023-12-02T23:14:41.053Z,34.35
2023-12-02T23:17:13.669Z,35.45
2023-12-02T23:19:41.649Z,34.33
2023-12-02T23:22:09.879Z,32.78
2023-12-02T23:24:38.545Z,32.53
2023-12-02T23:27:06.252Z,31.13
2023-12-02T23:29:33.595Z,30.92
2023-12-02T23:32:00.699Z,32.75
2023-12-02T23:34:27.589Z,32.03
2023-12-02T23:36:54.453Z,32.20
2023-12-02T23:39:23.335Z,31.02
2023-12-02T23:41:50.666Z,30.97
2023-12-02T23:44:29.473Z,29.92
2023-12-02T23:46:58.027Z,30.63
2023-12-02T23:49:24.857Z,30.25
2023-12-02T23:51:51.673Z,29.87
2023-12-02T23:54:18.451Z,28.65
2023-12-02T23:56:45.181Z,29.10
2023-12-02T23:59:12.479Z,31.30
